Time;durP1;ratioP1;P1;durP2;ratioP2;P2;SDS_P1;SDS_P2;PMS_P1;PMS_P2;Temp;Humidity;BMP_temperature;BMP_pressure;BME280_temperature;BME280_humidity;BME280_pressure;Samples;Min_cycle;Max_cycle;Signal;HPM_P1;HPM_P2
2022/03/06 00:09:51;;;;;;;11.97;7.60;;;5.90;49.50;;;;;;20922583;28;20211;-65
2022/03/06 00:19:53;;;;;;;11.40;7.43;;;5.80;49.60;;;;;;20922302;28;20236;-64
2022/03/06 00:29:55;;;;;;;15.50;7.43;;;5.80;50.10;;;;;;20921976;28;20702;-64
2022/03/06 00:39:56;;;;;;;11.37;7.27;;;5.90;50.30;;;;;;20920641;28;20248;-66
2022/03/06 00:49:59;;;;;;;11.47;7.20;;;5.90;50.10;;;;;;20896204;28;20339;-64
2022/03/06 01:00:03;;;;;;;15.23;8.10;;;6.00;50.60;;;;;;20835008;28;20244;-65
2022/03/06 01:10:05;;;;;;;12.47;7.73;;;5.90;50.10;;;;;;20835882;28;20660;-64
2022/03/06 01:20:07;;;;;;;12.20;8.00;;;5.80;50.70;;;;;;20834131;28;20291;-65
2022/03/06 01:30:11;;;;;;;10.70;7.20;;;5.80;51.20;;;;;;20834523;28;20215;-63
2022/03/06 01:40:14;;;;;;;11.27;7.30;;;5.70;50.20;;;;;;20833232;28;20244;-64
2022/03/06 01:50:27;;;;;;;13.10;8.20;;;5.60;49.90;;;;;;20832647;28;20266;-64
2022/03/06 02:00:34;;;;;;;14.53;8.00;;;5.50;50.60;;;;;;20832131;28;20323;-64
2022/03/06 02:10:36;;;;;;;12.73;8.17;;;;;;;;;;20831306;28;20291;-64
2022/03/06 02:20:38;;;;;;;12.17;7.73;;;5.50;51.30;;;;;;20830594;28;20243;-64
2022/03/06 02:30:42;;;;;;;10.70;7.40;;;5.50;51.80;;;;;;20830094;28;20212;-65
2022/03/06 02:40:44;;;;;;;11.20;7.47;;;5.30;52.10;;;;;;20829138;28;20298;-63
2022/03/06 02:50:46;;;;;;;13.07;7.80;;;5.20;52.30;;;;;;20828674;28;20545;-66
2022/03/06 03:00:48;;;;;;;13.57;7.53;;;5.20;52.80;;;;;;20842699;28;20241;-63
2022/03/06 03:10:50;;;;;;;11.90;7.40;;;5.20;53.10;;;;;;20828457;28;20204;-65
2022/03/06 03:20:52;;;;;;;12.47;7.67;;;5.00;53.40;;;;;;20828535;28;20227;-66
2022/03/06 03:30:54;;;;;;;16.73;9.10;;;5.00;53.40;;;;;;20829097;28;20203;-69
2022/03/06 03:40:55;;;;;;;12.73;8.27;;;5.00;53.90;;;;;;20832696;28;20245;-66
2022/03/06 03:50:58;;;;;;;14.37;7.57;;;5.10;53.80;;;;;;20840968;28;20711;-67
2022/03/06 04:01:00;;;;;;;13.30;7.87;;;5.10;54.20;;;;;;20841635;28;20294;-63
2022/03/06 04:11:04;;;;;;;10.37;7.03;;;5.00;53.60;;;;;;20844272;28;20208;-65
2022/03/06 04:21:05;;;;;;;10.03;6.90;;;4.90;53.70;;;;;;20843466;28;20287;-66
2022/03/06 04:31:08;;;;;;;14.27;7.70;;;4.90;53.80;;;;;;20840080;28;20617;-69
2022/03/06 04:41:09;;;;;;;11.97;7.40;;;4.90;53.20;;;;;;20839193;28;20738;-67
2022/03/06 04:51:11;;;;;;;11.63;7.20;;;4.80;53.20;;;;;;20836873;28;20645;-67
2022/03/06 05:01:14;;;;;;;11.43;7.47;;;4.80;53.70;;;;;;20835850;28;20696;-68
2022/03/06 05:11:16;;;;;;;10.87;6.83;;;4.70;53.70;;;;;;20836313;28;20240;-68
2022/03/06 05:21:18;;;;;;;10.70;6.60;;;4.70;53.90;;;;;;20836031;28;20734;-65
2022/03/06 05:31:20;;;;;;;12.73;7.63;;;4.70;53.80;;;;;;20835320;28;20300;-67
2022/03/06 05:41:22;;;;;;;12.00;7.13;;;4.40;53.50;;;;;;20833911;28;20645;-65
2022/03/06 05:51:23;;;;;;;10.93;6.90;;;4.30;53.40;;;;;;20831461;28;20254;-65
2022/03/06 06:01:25;;;;;;;9.90;6.73;;;4.30;53.50;;;;;;20843700;28;20259;-65
2022/03/06 06:11:27;;;;;;;9.83;6.37;;;4.30;54.00;;;;;;20885007;28;20210;-64
2022/03/06 06:21:29;;;;;;;12.63;7.63;;;4.20;53.40;;;;;;20883236;28;20224;-64
2022/03/06 06:31:31;;;;;;;12.47;7.47;;;4.10;53.30;;;;;;20912952;28;20208;-64
2022/03/06 06:41:32;;;;;;;17.00;7.77;;;4.20;53.80;;;;;;20911503;28;20282;-68
2022/03/06 06:51:34;;;;;;;13.27;7.87;;;4.20;53.60;;;;;;20911642;28;20212;-63
2022/03/06 07:01:36;;;;;;;15.40;6.90;;;4.30;54.40;;;;;;20911191;28;20227;-68
2022/03/06 07:11:38;;;;;;;16.67;7.87;;;4.30;54.30;;;;;;20910877;28;20249;-62
2022/03/06 07:21:40;;;;;;;12.43;7.67;;;4.30;54.60;;;;;;20926770;28;20293;-67
2022/03/06 07:31:41;;;;;;;12.63;7.20;;;4.20;55.10;;;;;;20927941;28;20207;-68
2022/03/06 07:41:43;;;;;;;13.77;8.77;;;4.30;54.30;;;;;;20928429;28;20243;-68
2022/03/06 07:51:45;;;;;;;11.73;7.47;;;4.40;53.80;;;;;;20924198;28;20258;-66
2022/03/06 08:01:46;;;;;;;12.27;7.43;;;4.40;54.70;;;;;;20853556;28;20232;-63
2022/03/06 08:11:48;;;;;;;11.00;7.50;;;4.60;53.40;;;;;;20840464;28;20204;-65
2022/03/06 08:21:50;;;;;;;13.90;7.50;;;4.60;53.90;;;;;;20839574;28;20236;-65
2022/03/06 08:31:55;;;;;;;14.50;7.97;;;5.00;52.70;;;;;;20838733;28;20670;-61
2022/03/06 08:41:57;;;;;;;12.97;7.87;;;5.30;52.80;;;;;;20838049;28;20278;-63
2022/03/06 08:51:59;;;;;;;11.83;7.87;;;5.30;53.10;;;;;;20837367;28;20209;-64
2022/03/06 09:02:02;;;;;;;13.07;8.00;;;5.60;52.90;;;;;;20838624;28;20777;-62
2022/03/06 09:12:05;;;;;;;10.03;7.40;;;6.00;52.60;;;;;;20835745;28;20209;-62
2022/03/06 09:22:07;;;;;;;11.13;7.60;;;6.20;49.90;;;;;;20834766;28;20237;-67
2022/03/06 09:32:09;;;;;;;10.57;7.33;;;6.30;50.40;;;;;;20834263;28;20716;-65
2022/03/06 09:42:10;;;;;;;10.67;7.97;;;6.50;49.90;;;;;;20832740;28;20306;-68
2022/03/06 09:52:12;;;;;;;11.87;7.87;;;6.70;48.00;;;;;;20832457;28;20212;-64
2022/03/06 10:02:18;;;;;;;10.50;6.90;;;6.80;46.00;;;;;;20905799;28;20303;-75
2022/03/06 10:12:29;;;;;;;10.63;7.20;;;6.80;45.20;;;;;;20913769;28;20220;-67
2022/03/06 10:22:37;;;;;;;10.80;7.40;;;7.20;42.80;;;;;;20912574;28;20717;-64
2022/03/06 10:32:43;;;;;;;11.83;8.07;;;7.30;42.70;;;;;;20912106;28;20553;-63
2022/03/06 10:42:48;;;;;;;12.63;8.80;;;7.30;44.00;;;;;;20911053;28;20669;-63
2022/03/06 10:52:53;;;;;;;10.90;7.40;;;7.40;45.30;;;;;;20909873;28;20406;-65
2022/03/06 11:02:57;;;;;;;10.57;7.60;;;7.50;46.10;;;;;;20831254;28;20698;-63
2022/03/06 11:13:00;;;;;;;11.53;7.50;;;7.60;45.80;;;;;;20828506;28;20206;-59
2022/03/06 11:23:16;;;;;;;13.10;7.73;;;7.70;43.60;;;;;;20827594;28;20751;-61
2022/03/06 11:33:20;;;;;;;10.43;7.50;;;7.70;43.10;;;;;;20827332;28;20215;-61
2022/03/06 11:43:35;;;;;;;12.10;7.30;;;7.80;42.70;;;;;;20869258;28;20320;-63
2022/03/06 11:53:53;;;;;;;9.27;7.27;;;8.00;42.10;;;;;;20908985;28;20735;-63
2022/03/06 12:04:06;;;;;;;8.97;6.83;;;8.10;40.80;;;;;;20916976;28;20247;-67
2022/03/06 12:14:20;;;;;;;10.90;7.33;;;8.20;40.50;;;;;;20908182;28;20219;-65
2022/03/06 12:24:28;;;;;;;8.97;6.67;;;8.40;40.70;;;;;;20934867;28;20242;-72
2022/03/06 12:34:40;;;;;;;9.07;6.93;;;8.40;40.70;;;;;;20906915;28;20241;-67
2022/03/06 12:44:45;;;;;;;10.43;7.13;;;8.40;41.30;;;;;;21005316;28;20296;-61
2022/03/06 12:54:49;;;;;;;10.67;7.57;;;8.60;40.30;;;;;;21002774;28;20658;-67
2022/03/06 13:04:53;;;;;;;10.60;6.70;;;8.40;39.70;;;;;;21000698;28;20230;-63
2022/03/06 13:14:54;;;;;;;8.37;6.77;;;8.40;39.50;;;;;;20927170;28;20684;-63
2022/03/06 13:24:58;;;;;;;9.93;7.70;;;8.30;39.20;;;;;;20916745;28;20339;-67
2022/03/06 13:35:02;;;;;;;10.33;7.63;;;8.20;39.80;;;;;;20914078;28;20285;-69
2022/03/06 13:45:08;;;;;;;11.10;7.83;;;8.10;40.00;;;;;;20914803;28;20234;-68
2022/03/06 13:55:12;;;;;;;10.63;8.00;;;7.90;39.50;;;;;;20917466;28;20209;-63
2022/03/06 14:05:13;;;;;;;11.03;8.03;;;7.80;39.80;;;;;;20843616;28;21385;-64
2022/03/06 14:15:22;;;;;;;10.40;8.27;;;;;;;;;;20841176;28;20208;-64
2022/03/06 14:25:25;;;;;;;10.83;8.57;;;7.70;40.10;;;;;;20832269;28;20239;-64
2022/03/06 14:35:27;;;;;;;10.97;8.57;;;7.70;41.20;;;;;;20831946;28;20234;-62
2022/03/06 14:45:29;;;;;;;15.60;9.03;;;7.60;42.20;;;;;;20833006;28;20243;-64
2022/03/06 14:55:31;;;;;;;15.27;8.57;;;7.60;42.70;;;;;;20829246;28;20209;-64
2022/03/06 15:05:53;;;;;;;12.47;9.10;;;7.50;43.30;;;;;;20828687;28;20238;-64
2022/03/06 15:16:15;;;;;;;12.80;9.93;;;7.40;43.50;;;;;;20828228;28;20210;-60
2022/03/06 15:26:18;;;;;;;13.40;10.23;;;7.40;44.20;;;;;;20828113;28;20688;-64
2022/03/06 15:36:19;;;;;;;12.77;10.23;;;7.30;43.50;;;;;;20831660;28;20234;-66
2022/03/06 15:46:21;;;;;;;12.73;9.97;;;7.10;44.10;;;;;;20842607;28;20234;-64
2022/03/06 15:56:23;;;;;;;14.33;10.20;;;7.00;44.60;;;;;;20841227;28;20205;-63
2022/03/06 16:06:27;;;;;;;13.83;9.70;;;6.90;44.80;;;;;;20838923;28;20287;-63
2022/03/06 16:16:29;;;;;;;14.80;10.13;;;7.00;45.30;;;;;;20840203;28;20210;-63
2022/03/06 16:26:31;;;;;;;11.47;9.40;;;7.00;45.70;;;;;;20840039;28;20270;-64
2022/03/06 16:36:33;;;;;;;12.60;8.40;;;6.90;45.70;;;;;;20838777;28;20648;-65
2022/03/06 16:46:35;;;;;;;11.47;8.60;;;6.60;44.50;;;;;;20837415;28;20232;-64
2022/03/06 16:56:37;;;;;;;14.97;8.97;;;6.60;45.00;;;;;;20905277;28;20210;-67
2022/03/06 17:06:39;;;;;;;12.10;8.97;;;6.50;45.30;;;;;;20896993;28;20280;-64
2022/03/06 17:16:41;;;;;;;16.10;9.47;;;6.40;45.40;;;;;;20836670;28;20271;-64
2022/03/06 17:26:43;;;;;;;14.93;8.97;;;6.40;45.90;;;;;;20834966;28;20239;-66
2022/03/06 17:36:45;;;;;;;12.70;8.43;;;6.20;45.60;;;;;;20834030;28;20241;-69
2022/03/06 17:46:47;;;;;;;12.70;8.73;;;6.10;45.60;;;;;;20833253;28;20241;-66
2022/03/06 17:56:49;;;;;;;11.33;8.57;;;6.10;46.10;;;;;;20835006;28;20231;-63
2022/03/06 18:06:51;;;;;;;14.10;8.97;;;6.10;46.20;;;;;;20911832;28;20762;-64
2022/03/06 18:16:53;;;;;;;10.63;8.03;;;6.10;45.70;;;;;;20913476;28;20220;-68
2022/03/06 18:26:55;;;;;;;10.63;8.07;;;6.10;45.70;;;;;;20912178;28;20236;-63
2022/03/06 18:36:57;;;;;;;11.53;8.10;;;6.00;45.80;;;;;;20910664;28;20634;-63
2022/03/06 18:46:59;;;;;;;14.47;8.13;;;5.90;46.40;;;;;;20927307;28;20240;-66
2022/03/06 18:57:01;;;;;;;12.97;8.37;;;5.90;46.30;;;;;;20918365;28;20212;-65
2022/03/06 19:07:04;;;;;;;12.90;7.90;;;5.90;45.70;;;;;;20911788;28;20227;-64
2022/03/06 19:17:07;;;;;;;11.20;7.50;;;5.70;45.80;;;;;;20927572;28;20574;-62
2022/03/06 19:27:10;;;;;;;9.90;7.70;;;5.70;46.00;;;;;;20926352;28;20223;-64
2022/03/06 19:37:12;;;;;;;10.77;8.20;;;5.70;46.60;;;;;;20925852;28;20242;-66
2022/03/06 19:47:15;;;;;;;10.57;7.37;;;5.60;46.70;;;;;;20925376;28;20345;-63
2022/03/06 19:57:20;;;;;;;11.17;7.80;;;5.70;47.30;;;;;;20921921;28;20211;-67
2022/03/06 20:07:22;;;;;;;10.93;8.10;;;5.70;47.60;;;;;;20920909;28;20262;-66
2022/03/06 20:17:24;;;;;;;11.30;8.47;;;5.70;47.50;;;;;;20922011;28;20229;-67
2022/03/06 20:27:27;;;;;;;12.97;8.97;;;5.60;47.90;;;;;;20919048;28;20210;-64
2022/03/06 20:37:29;;;;;;;12.77;8.70;;;5.50;47.50;;;;;;20917600;28;20281;-63
2022/03/06 20:47:33;;;;;;;11.87;8.87;;;5.50;47.50;;;;;;20917463;28;20212;-66
2022/03/06 20:57:35;;;;;;;13.00;8.80;;;5.50;47.50;;;;;;20917968;28;20210;-63
2022/03/06 21:07:38;;;;;;;12.83;8.50;;;5.50;48.20;;;;;;20916939;28;20655;-63
2022/03/06 21:17:41;;;;;;;14.63;8.33;;;5.40;47.70;;;;;;20915785;28;20208;-67
2022/03/06 21:27:45;;;;;;;12.93;8.80;;;5.40;47.80;;;;;;20915650;28;20232;-67
2022/03/06 21:37:47;;;;;;;12.60;8.23;;;5.30;48.20;;;;;;20918127;28;20236;-68
2022/03/06 21:47:50;;;;;;;10.57;8.27;;;5.10;49.40;;;;;;20916858;28;20204;-64
2022/03/06 21:57:53;;;;;;;12.17;7.73;;;5.00;49.50;;;;;;20915030;28;20231;-64
2022/03/06 22:07:56;;;;;;;9.50;6.70;;;4.80;50.40;;;;;;20830749;28;20212;-67
2022/03/06 22:17:58;;;;;;;9.20;6.23;;;4.80;51.00;;;;;;20831777;28;20229;-73
2022/03/06 22:28:01;;;;;;;8.77;5.80;;;4.80;51.60;;;;;;20827623;28;20212;-67
2022/03/06 22:38:04;;;;;;;8.03;5.00;;;4.60;50.90;;;;;;20827346;28;20248;-68
2022/03/06 22:48:07;;;;;;;9.27;5.37;;;4.60;51.30;;;;;;20826871;28;20472;-65
2022/03/06 22:58:10;;;;;;;7.07;4.80;;;4.40;50.70;;;;;;20827725;28;20224;-67
2022/03/06 23:08:13;;;;;;;6.60;4.27;;;4.20;50.30;;;;;;20828333;28;20208;-66
2022/03/06 23:18:15;;;;;;;6.87;4.33;;;4.10;50.10;;;;;;20853213;28;20862;-64
2022/03/06 23:28:18;;;;;;;8.73;4.10;;;4.10;49.90;;;;;;20907018;28;20218;-66
2022/03/06 23:38:21;;;;;;;6.40;4.53;;;4.00;49.90;;;;;;20910030;28;20231;-61
2022/03/06 23:48:27;;;;;;;5.93;4.10;;;4.10;49.80;;;;;;20909773;28;20215;-62
2022/03/06 23:58:28;;;;;;;5.57;4.07;;;4.10;49.60;;;;;;20921627;28;20374;-64
